Time;durP1;ratioP1;P1;durP2;ratioP2;P2;SDS_P1;SDS_P2;PMS_P1;PMS_P2;Temp;Humidity;BMP_temperature;BMP_pressure;BME280_temperature;BME280_humidity;BME280_pressure;Samples;Min_cycle;Max_cycle;Signal;HPM_P1;HPM_P2
2022/04/10 00:00:08;;;;;;;;;71.25;59.00;;;;;;;;5040012;28;51185;-54
2022/04/10 00:03:12;;;;;;;;;71.25;56.50;;;;;;;;5040206;28;51055;-54
2022/04/10 00:06:16;;;;;;;;;71.75;57.50;;;;;;;;5039681;28;51122;-54
2022/04/10 00:09:03;;;;;;;;;71.50;55.50;;;;;;;;5039940;28;51688;-52
2022/04/10 00:12:20;;;;;;;;;72.25;55.75;;;;;;;;5039514;28;51184;-54
2022/04/10 00:15:06;;;;;;;;;67.25;53.75;;;;;;;;5040160;28;51069;-53
2022/04/10 00:18:02;;;;;;;;;65.75;52.00;;;;;;;;5039508;28;51629;-54
2022/04/10 00:20:47;;;;;;;;;69.50;53.50;;;;;;;;5051193;28;51227;-53
2022/04/10 00:23:34;;;;;;;;;70.00;55.75;;;;;;;;5044348;28;51906;-54
2022/04/10 00:26:38;;;;;;;;;71.25;57.00;;;;;;;;5039511;28;51082;-55
2022/04/10 00:29:25;;;;;;;;;75.25;63.75;;;;;;;;5039855;28;51087;-54
2022/04/10 00:32:14;;;;;;;;;75.50;65.50;;;;;;;;5048361;28;51372;-54
2022/04/10 00:34:58;;;;;;;;;78.75;68.00;;;;;;;;5039102;28;51024;-55
2022/04/10 00:37:50;;;;;;;;;78.00;68.75;;;;;;;;5039109;28;51122;-53
2022/04/10 00:40:44;;;;;;;;;73.50;58.50;;;;;;;;5039483;28;51070;-53
2022/04/10 00:43:36;;;;;;;;;71.25;57.00;;;;;;;;5038982;28;51518;-53
2022/04/10 00:46:23;;;;;;;;;73.00;59.75;;;;;;;;5045359;28;51180;-54
2022/04/10 00:49:11;;;;;;;;;68.50;56.75;;;;;;;;5059394;28;51113;-53
2022/04/10 00:52:02;;;;;;;;;70.50;61.00;;;;;;;;5041225;28;51104;-55
2022/04/10 00:54:47;;;;;;;;;76.00;63.75;;;;;;;;5042808;28;51156;-52
2022/04/10 00:57:31;;;;;;;;;74.25;60.00;;;;;;;;5038771;28;51357;-54
2022/04/10 01:00:17;;;;;;;;;75.50;64.00;;;;;;;;5039356;28;51099;-54
2022/04/10 01:03:03;;;;;;;;;86.25;75.50;;;;;;;;5038488;28;51226;-53
2022/04/10 01:05:54;;;;;;;;;73.50;63.25;;;;;;;;5039141;28;51078;-51
2022/04/10 01:08:38;;;;;;;;;73.75;60.50;;;;;;;;5039010;28;51076;-52
2022/04/10 01:11:42;;;;;;;;;74.00;62.75;;;;;;;;5039087;28;51181;-54
2022/04/10 01:14:28;;;;;;;;;74.50;60.75;;;;;;;;5038803;28;51640;-53
2022/04/10 01:17:14;;;;;;;;;74.25;63.00;;;;;;;;5038820;28;51021;-52
2022/04/10 01:20:00;;;;;;;;;71.50;58.75;;;;;;;;5039081;28;51085;-53
2022/04/10 01:22:46;;;;;;;;;68.50;53.75;;;;;;;;5048894;28;51425;-55
2022/04/10 01:25:33;;;;;;;;;67.25;52.25;;;;;;;;5038876;28;51091;-53
2022/04/10 01:28:19;;;;;;;;;63.25;49.50;;;;;;;;5038693;28;51266;-54
2022/04/10 01:31:14;;;;;;;;;64.50;50.25;;;;;;;;5038714;28;51086;-54
2022/04/10 01:34:07;;;;;;;;;69.50;52.25;;;;;;;;5038329;28;51062;-53
2022/04/10 01:36:53;;;;;;;;;65.75;49.50;;;;;;;;5038783;28;51164;-52
2022/04/10 01:39:37;;;;;;;;;64.00;50.25;;;;;;;;5038683;28;51209;-54
2022/04/10 01:42:43;;;;;;;;;64.50;50.75;;;;;;;;5038272;28;51011;-52
2022/04/10 01:45:43;;;;;;;;;62.25;49.00;;;;;;;;5038819;28;51004;-53
2022/04/10 01:48:38;;;;;;;;;62.25;49.25;;;;;;;;5038345;28;51121;-53
2022/04/10 01:51:25;;;;;;;;;64.00;51.00;;;;;;;;5038378;28;51133;-54
2022/04/10 01:54:10;;;;;;;;;67.25;53.00;;;;;;;;5037990;28;51111;-53
2022/04/10 01:57:01;;;;;;;;;67.00;50.00;;;;;;;;5038853;28;51157;-53
2022/04/10 01:59:48;;;;;;;;;66.25;49.75;;;;;;;;5038469;28;51354;-54
2022/04/10 02:02:32;;;;;;;;;66.25;51.00;;;;;;;;5038335;28;51167;-54
2022/04/10 02:05:18;;;;;;;;;62.75;50.25;;;;;;;;5038479;28;51072;-52
2022/04/10 02:08:02;;;;;;;;;65.50;53.50;;;;;;;;5038365;28;51120;-53
2022/04/10 02:10:48;;;;;;;;;64.50;49.75;;;;;;;;5040892;28;50962;-54
2022/04/10 02:13:34;;;;;;;;;66.50;51.75;;;;;;;;5057574;28;51484;-52
2022/04/10 02:16:25;;;;;;;;;64.00;50.50;;;;;;;;5042192;28;51672;-54
2022/04/10 02:19:09;;;;;;;;;67.00;51.75;;;;;;;;5041883;28;51121;-53
2022/04/10 02:21:57;;;;;;;;;64.00;51.25;;;;;;;;5042306;28;51184;-53
2022/04/10 02:24:43;;;;;;;;;66.00;51.25;;;;;;;;5041675;28;51207;-53
2022/04/10 02:27:28;;;;;;;;;65.00;51.75;;;;;;;;5041715;28;51083;-54
2022/04/10 02:30:18;;;;;;;;;66.25;52.75;;;;;;;;5041989;28;51200;-54
2022/04/10 02:33:02;;;;;;;;;65.50;51.25;;;;;;;;5061555;28;51109;-53
2022/04/10 02:35:49;;;;;;;;;63.50;50.50;;;;;;;;5061788;28;51113;-54
2022/04/10 02:38:33;;;;;;;;;63.50;50.00;;;;;;;;5061532;28;51065;-50
2022/04/10 02:41:19;;;;;;;;;65.50;50.75;;;;;;;;5056081;28;51654;-53
2022/04/10 02:44:06;;;;;;;;;64.75;50.75;;;;;;;;5049596;28;51265;-53
2022/04/10 02:46:51;;;;;;;;;66.25;50.75;;;;;;;;5045460;28;51222;-54
2022/04/10 02:49:48;;;;;;;;;63.00;49.50;;;;;;;;5061428;28;51138;-52
2022/04/10 02:52:32;;;;;;;;;62.50;48.25;;;;;;;;5061449;28;51246;-54
2022/04/10 02:55:23;;;;;;;;;62.25;47.25;;;;;;;;5061699;28;51069;-55
2022/04/10 02:58:19;;;;;;;;;64.75;48.75;;;;;;;;5061396;28;51034;-54
2022/04/10 03:01:05;;;;;;;;;61.25;47.00;;;;;;;;5061467;28;51060;-54
2022/04/10 03:04:15;;;;;;;;;58.75;46.00;;;;;;;;5043509;28;51255;-54
2022/04/10 03:07:01;;;;;;;;;58.00;47.00;;;;;;;;5061017;28;51096;-54
2022/04/10 03:09:45;;;;;;;;;56.00;45.00;;;;;;;;5061014;28;51057;-55
2022/04/10 03:12:30;;;;;;;;;52.00;41.25;;;;;;;;5061577;28;51164;-52
2022/04/10 03:15:16;;;;;;;;;54.00;41.75;;;;;;;;5055066;28;51509;-54
2022/04/10 03:18:30;;;;;;;;;49.75;41.50;;;;;;;;5041130;28;51117;-54
2022/04/10 03:21:25;;;;;;;;;52.50;40.50;;;;;;;;5040873;28;51062;-53
2022/04/10 03:24:19;;;;;;;;;53.25;42.00;;;;;;;;5040453;28;51090;-53
2022/04/10 03:27:04;;;;;;;;;52.00;41.50;;;;;;;;5040767;28;51135;-53
2022/04/10 03:29:59;;;;;;;;;52.50;42.50;;;;;;;;5040559;28;51081;-54
2022/04/10 03:32:47;;;;;;;;;50.00;41.25;;;;;;;;5070546;27;51200;-52
2022/04/10 03:35:34;;;;;;;;;55.25;43.25;;;;;;;;5047904;28;51050;-52
2022/04/10 03:38:19;;;;;;;;;54.00;42.50;;;;;;;;5060564;28;51025;-54
2022/04/10 03:41:05;;;;;;;;;49.25;41.25;;;;;;;;5060365;28;51032;-54
2022/04/10 03:43:49;;;;;;;;;52.75;40.25;;;;;;;;5060553;28;51204;-54
2022/04/10 03:46:33;;;;;;;;;52.75;40.25;;;;;;;;5060316;28;51136;-55
2022/04/10 03:49:27;;;;;;;;;50.00;39.50;;;;;;;;5060213;28;51199;-54
2022/04/10 03:52:11;;;;;;;;;53.00;40.00;;;;;;;;5060613;28;51069;-54
2022/04/10 03:54:55;;;;;;;;;51.50;41.25;;;;;;;;5060404;28;51136;-53
2022/04/10 03:57:49;;;;;;;;;49.00;39.00;;;;;;;;5060256;28;51581;-53
2022/04/10 04:00:34;;;;;;;;;53.25;41.00;;;;;;;;5059836;28;51111;-53
2022/04/10 04:03:26;;;;;;;;;48.00;40.00;;;;;;;;5060294;28;51135;-53
2022/04/10 04:06:10;;;;;;;;;50.75;40.75;;;;;;;;5060184;28;51528;-54
2022/04/10 04:08:55;;;;;;;;;53.25;40.50;;;;;;;;5060078;28;51256;-54
2022/04/10 04:11:43;;;;;;;;;52.25;43.00;;;;;;;;5059711;28;51293;-53
2022/04/10 04:14:27;;;;;;;;;50.00;38.00;;;;;;;;5060090;28;51105;-53
2022/04/10 04:17:11;;;;;;;;;48.75;40.75;;;;;;;;5059794;28;51065;-53
2022/04/10 04:19:58;;;;;;;;;52.00;41.50;;;;;;;;5059596;28;51278;-54
2022/04/10 04:22:45;;;;;;;;;53.50;41.75;;;;;;;;5059655;28;51602;-52
2022/04/10 04:25:31;;;;;;;;;47.00;39.50;;;;;;;;5059598;28;51135;-55
2022/04/10 04:28:25;;;;;;;;;47.75;38.25;;;;;;;;5059825;28;51156;-54
2022/04/10 04:31:12;;;;;;;;;47.75;38.50;;;;;;;;5059456;28;51267;-53
2022/04/10 04:33:56;;;;;;;;;50.25;41.75;;;;;;;;5058983;28;51050;-53
2022/04/10 04:36:42;;;;;;;;;51.50;38.50;;;;;;;;5052876;28;51735;-54
2022/04/10 04:39:28;;;;;;;;;48.00;39.25;;;;;;;;5039365;28;51126;-54
2022/04/10 04:42:12;;;;;;;;;45.25;37.75;;;;;;;;5039227;28;51076;-55
2022/04/10 04:44:57;;;;;;;;;47.25;39.25;;;;;;;;5039191;28;51079;-54
2022/04/10 04:47:41;;;;;;;;;46.75;38.50;;;;;;;;5039426;28;51246;-51
2022/04/10 04:50:25;;;;;;;;;48.75;39.25;;;;;;;;5039006;28;51227;-53
2022/04/10 04:53:10;;;;;;;;;48.00;37.25;;;;;;;;5054516;28;51149;-52
2022/04/10 04:55:54;;;;;;;;;45.75;35.25;;;;;;;;5059216;28;51461;-53
2022/04/10 04:58:39;;;;;;;;;47.50;39.00;;;;;;;;5059199;28;50980;-54
2022/04/10 05:01:23;;;;;;;;;49.50;39.00;;;;;;;;5059106;28;51825;-54
2022/04/10 05:04:10;;;;;;;;;46.75;38.25;;;;;;;;5059282;28;51141;-52
2022/04/10 05:06:54;;;;;;;;;55.75;43.00;;;;;;;;5059555;28;51085;-54
2022/04/10 05:09:59;;;;;;;;;52.75;42.25;;;;;;;;5059176;28;51075;-54
2022/04/10 05:13:13;;;;;;;;;53.75;43.25;;;;;;;;5058371;28;51122;-53
2022/04/10 05:16:00;;;;;;;;;52.00;42.25;;;;;;;;5049692;28;51078;-53
2022/04/10 05:18:47;;;;;;;;;61.50;48.50;;;;;;;;5059142;28;51138;-54
2022/04/10 05:21:31;;;;;;;;;63.25;50.75;;;;;;;;5058844;28;51342;-53
2022/04/10 05:24:19;;;;;;;;;55.75;44.25;;;;;;;;5058771;28;51044;-54
2022/04/10 05:27:10;;;;;;;;;51.25;41.00;;;;;;;;5059223;28;51547;-53
2022/04/10 05:29:54;;;;;;;;;49.75;40.00;;;;;;;;5045115;28;51056;-54
2022/04/10 05:32:44;;;;;;;;;48.75;40.75;;;;;;;;5049298;28;51058;-53
2022/04/10 05:35:48;;;;;;;;;53.50;44.00;;;;;;;;5041416;28;51295;-52
2022/04/10 05:38:32;;;;;;;;;57.50;44.75;;;;;;;;5052125;28;51223;-53
2022/04/10 05:41:21;;;;;;;;;59.25;45.00;;;;;;;;5038795;28;51087;-54
2022/04/10 05:44:06;;;;;;;;;56.25;43.75;;;;;;;;5038781;28;51063;-55
2022/04/10 05:46:50;;;;;;;;;50.00;39.50;;;;;;;;5042389;28;51078;-53
2022/04/10 05:49:35;;;;;;;;;55.50;42.75;;;;;;;;5042544;28;51211;-54
2022/04/10 05:52:21;;;;;;;;;57.00;43.75;;;;;;;;5042616;28;51486;-53
2022/04/10 05:55:07;;;;;;;;;55.75;44.25;;;;;;;;5045001;28;51085;-53
2022/04/10 05:57:53;;;;;;;;;64.25;49.25;;;;;;;;5042128;28;51032;-53
2022/04/10 06:00:40;;;;;;;;;66.50;51.00;;;;;;;;5042389;28;51078;-52
2022/04/10 06:03:24;;;;;;;;;59.75;46.25;;;;;;;;5042212;28;51600;-54
2022/04/10 06:06:11;;;;;;;;;65.50;50.50;;;;;;;;5041384;28;51201;-55
2022/04/10 06:09:18;;;;;;;;;69.50;54.50;;;;;;;;5059460;28;51078;-54
2022/04/10 06:12:05;;;;;;;;;65.50;50.75;;;;;;;;5062163;28;51460;-50
2022/04/10 06:14:50;;;;;;;;;66.25;52.00;;;;;;;;5062601;28;51160;-54
2022/04/10 06:17:35;;;;;;;;;62.25;48.50;;;;;;;;5061880;28;51149;-52
2022/04/10 06:20:22;;;;;;;;;62.25;50.00;;;;;;;;5044219;28;51246;-51
2022/04/10 06:23:09;;;;;;;;;68.25;52.25;;;;;;;;5061609;28;51578;-53
2022/04/10 06:26:01;;;;;;;;;60.25;48.00;;;;;;;;5061396;28;51041;-55
2022/04/10 06:28:46;;;;;;;;;62.25;49.00;;;;;;;;5062279;28;51633;-51
2022/04/10 06:31:43;;;;;;;;;64.75;49.00;;;;;;;;5061835;28;51097;-53
2022/04/10 06:34:31;;;;;;;;;57.75;45.25;;;;;;;;5061834;28;51196;-53
2022/04/10 06:37:16;;;;;;;;;56.25;44.25;;;;;;;;5061492;28;51381;-53
2022/04/10 06:40:07;;;;;;;;;58.25;47.25;;;;;;;;5062015;28;51129;-51
2022/04/10 06:43:17;;;;;;;;;61.00;48.25;;;;;;;;5061735;28;51639;-53
2022/04/10 06:46:04;;;;;;;;;58.25;46.50;;;;;;;;5057660;28;51183;-49
2022/04/10 06:48:50;;;;;;;;;62.00;46.75;;;;;;;;5060771;28;51128;-55
2022/04/10 06:51:36;;;;;;;;;63.50;49.25;;;;;;;;5061526;28;51154;-52
2022/04/10 06:54:32;;;;;;;;;64.75;51.00;;;;;;;;5061531;28;51585;-55
2022/04/10 06:57:17;;;;;;;;;63.25;51.25;;;;;;;;5054098;28;51551;-52
2022/04/10 07:00:02;;;;;;;;;67.25;52.00;;;;;;;;5054197;28;51021;-52
2022/04/10 07:02:48;;;;;;;;;67.50;51.50;;;;;;;;5059020;28;51448;-54
2022/04/10 07:05:32;;;;;;;;;65.75;50.75;;;;;;;;5060684;28;51113;-54
2022/04/10 07:08:16;;;;;;;;;68.00;51.25;;;;;;;;5055805;28;51634;-53
2022/04/10 07:11:01;;;;;;;;;61.00;48.50;;;;;;;;5058446;28;51112;-50
2022/04/10 07:13:45;;;;;;;;;66.00;52.25;;;;;;;;5050190;28;51407;-49
2022/04/10 07:16:40;;;;;;;;;66.00;52.75;;;;;;;;5057840;28;51187;-52
2022/04/10 07:19:26;;;;;;;;;68.75;52.25;;;;;;;;5058179;28;51781;-48
2022/04/10 07:25:14;;;;;;;;;64.50;51.00;;;;;;;;5060440;28;50956;-53
2022/04/10 07:28:00;;;;;;;;;66.75;52.75;;;;;;;;5059380;28;51342;-49
2022/04/10 07:30:51;;;;;;;;;62.00;49.25;;;;;;;;5059948;28;51191;-52
2022/04/10 07:33:36;;;;;;;;;62.00;48.00;;;;;;;;5060158;28;51134;-51
2022/04/10 07:36:23;;;;;;;;;61.00;47.00;;;;;;;;5059619;28;51050;-51
2022/04/10 07:39:10;;;;;;;;;60.50;46.75;;;;;;;;5058225;28;51124;-53
2022/04/10 07:41:54;;;;;;;;;61.00;48.00;;;;;;;;5060017;28;51128;-50
2022/04/10 07:44:39;;;;;;;;;63.25;48.50;;;;;;;;5058853;28;51614;-52
2022/04/10 07:47:26;;;;;;;;;52.75;43.00;;;;;;;;5059504;28;51097;-51
2022/04/10 07:50:12;;;;;;;;;56.25;42.00;;;;;;;;5058475;28;51216;-53
2022/04/10 07:52:56;;;;;;;;;58.75;47.50;;;;;;;;5059363;28;51511;-52
2022/04/10 07:55:41;;;;;;;;;56.25;44.25;;;;;;;;5057522;28;51143;-53
2022/04/10 07:58:25;;;;;;;;;55.75;44.50;;;;;;;;5039040;28;51200;-47
2022/04/10 08:01:29;;;;;;;;;54.75;42.25;;;;;;;;5039805;28;51065;-49
2022/04/10 08:04:25;;;;;;;;;52.25;43.25;;;;;;;;5039155;28;51445;-50
2022/04/10 08:07:11;;;;;;;;;53.50;41.75;;;;;;;;5037695;28;51984;-50
2022/04/10 08:09:55;;;;;;;;;52.00;40.25;;;;;;;;5037555;28;51193;-50
2022/04/10 08:12:51;;;;;;;;;46.00;37.50;;;;;;;;5038687;28;51110;-49
2022/04/10 08:15:39;;;;;;;;;49.75;38.50;;;;;;;;5046566;28;51200;-51
2022/04/10 08:18:36;;;;;;;;;48.25;39.25;;;;;;;;5058270;28;51323;-51
2022/04/10 08:21:22;;;;;;;;;44.00;34.25;;;;;;;;5045122;28;51240;-48
2022/04/10 08:24:09;;;;;;;;;31.25;28.50;;;;;;;;5038447;28;51093;-52
2022/04/10 08:26:54;;;;;;;;;38.25;32.50;;;;;;;;5047112;28;51046;-48
2022/04/10 08:29:39;;;;;;;;;34.25;27.75;;;;;;;;5056201;28;53987;-53
2022/04/10 08:32:25;;;;;;;;;24.50;21.25;;;;;;;;5058823;28;51149;-49
2022/04/10 08:35:13;;;;;;;;;27.50;21.50;;;;;;;;5058412;28;51127;-52
2022/04/10 08:37:59;;;;;;;;;21.75;19.75;;;;;;;;5049786;28;51069;-53
2022/04/10 08:40:46;;;;;;;;;26.25;18.00;;;;;;;;5058747;28;51132;-52
2022/04/10 08:43:33;;;;;;;;;23.25;21.75;;;;;;;;5057541;28;51088;-53
2022/04/10 08:46:25;;;;;;;;;14.25;11.50;;;;;;;;5057776;28;51156;-53
2022/04/10 08:49:20;;;;;;;;;14.75;9.75;;;;;;;;5056844;28;51091;-53
2022/04/10 08:52:05;;;;;;;;;18.25;11.75;;;;;;;;5059100;28;51147;-53
2022/04/10 08:54:52;;;;;;;;;11.75;8.00;;;;;;;;5058562;28;51444;-53
2022/04/10 08:57:37;;;;;;;;;12.25;9.25;;;;;;;;5057945;28;51251;-52
2022/04/10 09:00:23;;;;;;;;;12.75;7.75;;;;;;;;5058056;28;50978;-51
2022/04/10 09:03:09;;;;;;;;;12.00;10.75;;;;;;;;5058428;28;51195;-51
2022/04/10 09:06:07;;;;;;;;;11.50;8.00;;;;;;;;5058364;28;51093;-51
2022/04/10 09:09:09;;;;;;;;;8.50;8.50;;;;;;;;5043319;28;51649;-54
2022/04/10 09:11:57;;;;;;;;;14.00;11.25;;;;;;;;5056757;28;51044;-49
2022/04/10 09:14:57;;;;;;;;;12.75;11.25;;;;;;;;5056549;28;51138;-49
2022/04/10 09:17:54;;;;;;;;;18.75;16.25;;;;;;;;5058004;28;51099;-53
2022/04/10 09:20:41;;;;;;;;;18.00;15.50;;;;;;;;5042983;28;51107;-54
2022/04/10 09:23:29;;;;;;;;;17.00;13.75;;;;;;;;5058681;28;51126;-54
2022/04/10 09:26:14;;;;;;;;;13.75;11.50;;;;;;;;5046627;28;51040;-53
2022/04/10 09:29:04;;;;;;;;;16.00;13.25;;;;;;;;5035339;28;51175;-55
2022/04/10 09:31:51;;;;;;;;;11.50;7.75;;;;;;;;5046197;28;51512;-53
2022/04/10 09:34:38;;;;;;;;;15.50;14.00;;;;;;;;5037254;28;51387;-56
2022/04/10 09:37:27;;;;;;;;;23.25;15.25;;;;;;;;5037962;28;51083;-54
2022/04/10 09:40:31;;;;;;;;;23.75;13.75;;;;;;;;5053253;28;51000;-53
2022/04/10 09:43:27;;;;;;;;;13.25;10.25;;;;;;;;5036200;28;51098;-56
2022/04/10 09:46:17;;;;;;;;;15.25;14.50;;;;;;;;5037742;28;51171;-55
2022/04/10 09:49:05;;;;;;;;;22.25;16.00;;;;;;;;5035323;28;51195;-55
2022/04/10 09:52:08;;;;;;;;;11.75;11.50;;;;;;;;5038098;28;51169;-53
2022/04/10 09:54:53;;;;;;;;;15.75;14.25;;;;;;;;5037614;28;51126;-55
2022/04/10 09:57:50;;;;;;;;;18.00;15.25;;;;;;;;5054185;28;51197;-55
2022/04/10 10:00:46;;;;;;;;;21.75;14.75;;;;;;;;5056632;28;51507;-54
2022/04/10 10:03:36;;;;;;;;;15.00;14.50;;;;;;;;5057913;28;51597;-54
2022/04/10 10:06:21;;;;;;;;;19.25;16.00;;;;;;;;5057908;28;51006;-54
2022/04/10 10:09:07;;;;;;;;;18.00;12.50;;;;;;;;5057225;28;51205;-54
2022/04/10 10:11:52;;;;;;;;;17.25;16.50;;;;;;;;5038504;28;51034;-54
2022/04/10 10:14:41;;;;;;;;;21.50;18.00;;;;;;;;5057568;28;51189;-53
2022/04/10 10:17:29;;;;;;;;;24.50;18.00;;;;;;;;5057925;28;51329;-55
2022/04/10 10:20:14;;;;;;;;;21.25;15.00;;;;;;;;5054998;28;51120;-54
2022/04/10 10:23:09;;;;;;;;;14.25;14.25;;;;;;;;5057832;28;51097;-54
2022/04/10 10:26:19;;;;;;;;;17.50;13.25;;;;;;;;5057011;28;51374;-55
2022/04/10 10:29:23;;;;;;;;;16.00;13.00;;;;;;;;5006731;28;51511;-54
2022/04/10 10:32:40;;;;;;;;;19.25;15.50;;;;;;;;5059715;28;51015;-55
2022/04/10 10:35:34;;;;;;;;;14.50;14.25;;;;;;;;5026491;28;51409;-54
2022/04/10 10:38:26;;;;;;;;;13.50;12.50;;;;;;;;5039198;28;51642;-55
2022/04/10 10:41:20;;;;;;;;;13.25;10.50;;;;;;;;5040333;28;51114;-56
2022/04/10 10:44:36;;;;;;;;;16.50;13.00;;;;;;;;5040543;28;51471;-54
2022/04/10 10:47:31;;;;;;;;;3.00;0.75;;;;;;;;5049822;28;51191;-55
2022/04/10 10:50:27;;;;;;;;;16.50;13.75;;;;;;;;5038686;28;51097;-56
2022/04/10 10:53:13;;;;;;;;;13.00;12.00;;;;;;;;5057521;28;51551;-54
2022/04/10 10:56:04;;;;;;;;;13.00;11.00;;;;;;;;5058858;28;51137;-55
2022/04/10 10:58:49;;;;;;;;;15.25;12.50;;;;;;;;5039435;28;50987;-55
2022/04/10 11:01:43;;;;;;;;;13.25;13.00;;;;;;;;5058692;28;51165;-54
2022/04/10 11:04:28;;;;;;;;;14.25;9.50;;;;;;;;5059839;28;51072;-54
2022/04/10 11:07:21;;;;;;;;;13.75;11.00;;;;;;;;5060680;28;51039;-54
2022/04/10 11:10:14;;;;;;;;;15.75;12.50;;;;;;;;5059494;28;51412;-54
2022/04/10 11:13:06;;;;;;;;;11.00;8.00;;;;;;;;5060146;28;51071;-54
2022/04/10 11:15:53;;;;;;;;;13.75;8.50;;;;;;;;5058834;28;51185;-55
2022/04/10 11:18:50;;;;;;;;;11.25;8.00;;;;;;;;5038609;28;51518;-53
2022/04/10 11:21:43;;;;;;;;;9.25;7.50;;;;;;;;5038527;28;51507;-54
2022/04/10 11:24:29;;;;;;;;;7.50;6.75;;;;;;;;5041501;28;51187;-55
2022/04/10 11:27:19;;;;;;;;;10.25;7.25;;;;;;;;5039408;28;51125;-54
2022/04/10 11:30:04;;;;;;;;;10.75;9.50;;;;;;;;5057109;28;51478;-56
2022/04/10 11:32:48;;;;;;;;;8.75;5.75;;;;;;;;5038385;28;51126;-54
2022/04/10 11:35:35;;;;;;;;;1.75;1.75;;;;;;;;5040055;28;52124;-56
2022/04/10 11:38:23;;;;;;;;;10.00;8.25;;;;;;;;5042807;28;51129;-54
2022/04/10 11:41:09;;;;;;;;;6.75;3.00;;;;;;;;5040495;28;51070;-56
2022/04/10 11:43:56;;;;;;;;;8.50;7.50;;;;;;;;5040121;28;51585;-55
2022/04/10 11:46:41;;;;;;;;;7.00;5.75;;;;;;;;5040482;28;51389;-55
2022/04/10 11:49:31;;;;;;;;;7.75;7.75;;;;;;;;5040423;28;51154;-54
2022/04/10 11:52:21;;;;;;;;;6.50;5.25;;;;;;;;5040607;28;51047;-54
2022/04/10 11:55:29;;;;;;;;;10.25;7.25;;;;;;;;5059534;28;51429;-53
2022/04/10 11:58:19;;;;;;;;;8.00;6.00;;;;;;;;5060359;28;51157;-55
2022/04/10 12:01:05;;;;;;;;;6.50;5.75;;;;;;;;5044435;28;51352;-55
2022/04/10 12:03:49;;;;;;;;;8.00;5.25;;;;;;;;5040129;28;51178;-55
2022/04/10 12:06:36;;;;;;;;;15.00;6.50;;;;;;;;5040246;28;51106;-54
2022/04/10 12:09:29;;;;;;;;;11.00;6.25;;;;;;;;5058179;28;51605;-54
2022/04/10 12:12:19;;;;;;;;;7.00;5.25;;;;;;;;5060359;28;51342;-56
2022/04/10 12:15:07;;;;;;;;;7.50;6.25;;;;;;;;5059898;28;51486;-53
2022/04/10 12:18:11;;;;;;;;;8.50;4.25;;;;;;;;5060641;28;51175;-54
2022/04/10 12:21:01;;;;;;;;;8.75;5.50;;;;;;;;5060013;28;50982;-54
2022/04/10 12:23:48;;;;;;;;;8.00;5.25;;;;;;;;5040176;28;51226;-54
2022/04/10 12:26:35;;;;;;;;;5.50;5.50;;;;;;;;5051530;28;51090;-54
2022/04/10 12:29:23;;;;;;;;;4.00;4.00;;;;;;;;5039933;28;51442;-53
2022/04/10 12:32:09;;;;;;;;;10.00;6.00;;;;;;;;5039962;28;51130;-54
2022/04/10 12:35:07;;;;;;;;;7.00;4.50;;;;;;;;5039167;28;51390;-54
2022/04/10 12:38:03;;;;;;;;;4.75;2.00;;;;;;;;5039900;28;51477;-54
2022/04/10 12:40:48;;;;;;;;;8.25;4.75;;;;;;;;5039403;28;51141;-55
2022/04/10 12:43:33;;;;;;;;;6.00;4.50;;;;;;;;5039692;28;51063;-55
2022/04/10 12:46:18;;;;;;;;;4.50;2.50;;;;;;;;5038965;28;51328;-56
2022/04/10 12:49:13;;;;;;;;;8.75;6.50;;;;;;;;5039124;28;51005;-55
2022/04/10 12:52:09;;;;;;;;;6.50;5.00;;;;;;;;5039852;28;51085;-55
2022/04/10 12:55:21;;;;;;;;;8.50;5.25;;;;;;;;5038861;28;51057;-55
2022/04/10 12:58:07;;;;;;;;;11.25;5.00;;;;;;;;5039717;28;51110;-55
2022/04/10 13:00:54;;;;;;;;;5.00;5.00;;;;;;;;5038804;28;51208;-53
2022/04/10 13:03:47;;;;;;;;;6.75;4.75;;;;;;;;5039269;28;51043;-55
2022/04/10 13:06:52;;;;;;;;;1.50;1.50;;;;;;;;5054701;28;51170;-52
2022/04/10 13:09:37;;;;;;;;;10.75;3.25;;;;;;;;5039202;28;51126;-52
2022/04/10 13:12:23;;;;;;;;;6.25;4.75;;;;;;;;5039043;28;51094;-54
2022/04/10 13:15:11;;;;;;;;;8.25;6.00;;;;;;;;5039056;28;51125;-54
2022/04/10 13:18:10;;;;;;;;;7.75;5.25;;;;;;;;5039174;28;51328;-54
2022/04/10 13:20:58;;;;;;;;;6.50;5.25;;;;;;;;5038774;28;51080;-54
2022/04/10 13:23:44;;;;;;;;;3.75;2.50;;;;;;;;5039028;28;51149;-54
2022/04/10 13:26:30;;;;;;;;;5.00;3.75;;;;;;;;5038991;28;51542;-54
2022/04/10 13:29:20;;;;;;;;;1.00;0.25;;;;;;;;5038967;28;51198;-55
2022/04/10 13:32:05;;;;;;;;;6.50;4.50;;;;;;;;5038600;28;51112;-53
2022/04/10 13:34:53;;;;;;;;;6.00;5.00;;;;;;;;5039358;28;51047;-53
2022/04/10 13:37:41;;;;;;;;;5.25;4.00;;;;;;;;5056792;28;51069;-55
2022/04/10 13:40:26;;;;;;;;;8.25;4.00;;;;;;;;5058967;28;51155;-55
2022/04/10 13:43:32;;;;;;;;;9.25;5.00;;;;;;;;5058909;28;51113;-55
2022/04/10 13:46:25;;;;;;;;;7.75;4.75;;;;;;;;5058720;28;51074;-55
2022/04/10 13:49:13;;;;;;;;;6.00;4.75;;;;;;;;5059007;28;51080;-55
2022/04/10 13:52:03;;;;;;;;;9.00;5.75;;;;;;;;5054443;28;51423;-54
2022/04/10 13:54:48;;;;;;;;;2.00;2.00;;;;;;;;5058817;28;51452;-54
2022/04/10 13:57:48;;;;;;;;;4.75;2.00;;;;;;;;5057873;28;51060;-55
2022/04/10 14:00:33;;;;;;;;;4.50;3.50;;;;;;;;5059103;28;50960;-55
2022/04/10 14:03:25;;;;;;;;;0.00;0.00;;;;;;;;5058600;28;51076;-53
2022/04/10 14:06:11;;;;;;;;;6.00;3.75;;;;;;;;5060189;28;51442;-54
2022/04/10 14:08:58;;;;;;;;;5.50;3.75;;;;;;;;5062555;28;51378;-54
2022/04/10 14:11:49;;;;;;;;;3.75;3.75;;;;;;;;5062467;28;51117;-54
2022/04/10 14:14:34;;;;;;;;;5.25;3.00;;;;;;;;5062762;28;51124;-53
2022/04/10 14:17:18;;;;;;;;;5.00;3.00;;;;;;;;5062375;28;51540;-54
2022/04/10 14:20:03;;;;;;;;;8.75;2.25;;;;;;;;5062357;28;51297;-55
2022/04/10 14:22:48;;;;;;;;;4.50;2.25;;;;;;;;5062401;28;51145;-55
2022/04/10 14:25:45;;;;;;;;;1.50;1.50;;;;;;;;5062497;28;51097;-53
2022/04/10 14:28:31;;;;;;;;;1.75;1.00;;;;;;;;5062012;28;51196;-53
2022/04/10 14:31:15;;;;;;;;;3.50;3.00;;;;;;;;5062005;28;51248;-53
2022/04/10 14:34:04;;;;;;;;;6.00;4.00;;;;;;;;5062427;28;51169;-55
2022/04/10 14:36:49;;;;;;;;;4.75;4.75;;;;;;;;5061640;28;51085;-55
2022/04/10 14:39:35;;;;;;;;;7.50;4.75;;;;;;;;5062183;28;51069;-54
2022/04/10 14:42:29;;;;;;;;;5.25;4.25;;;;;;;;5061958;28;51117;-56
2022/04/10 14:45:15;;;;;;;;;4.25;4.00;;;;;;;;5061923;28;51158;-54
2022/04/10 14:48:02;;;;;;;;;4.75;3.00;;;;;;;;5061948;28;51183;-55
2022/04/10 14:50:50;;;;;;;;;7.00;4.00;;;;;;;;5060466;28;51136;-55
2022/04/10 14:53:37;;;;;;;;;10.75;4.75;;;;;;;;5041591;28;51102;-52
2022/04/10 14:56:22;;;;;;;;;8.75;3.00;;;;;;;;5041565;28;51294;-54
2022/04/10 14:59:12;;;;;;;;;9.50;5.00;;;;;;;;5041726;28;51470;-54
2022/04/10 15:02:09;;;;;;;;;3.75;3.75;;;;;;;;5041458;28;51113;-55
2022/04/10 15:05:06;;;;;;;;;5.00;1.25;;;;;;;;5041417;28;51193;-52
2022/04/10 15:07:58;;;;;;;;;2.00;2.00;;;;;;;;5041142;28;51124;-51
2022/04/10 15:10:47;;;;;;;;;6.00;4.00;;;;;;;;5040734;28;51244;-56
2022/04/10 15:13:35;;;;;;;;;4.00;2.75;;;;;;;;5029760;28;51172;-55
2022/04/10 15:16:21;;;;;;;;;4.00;3.25;;;;;;;;5038285;28;51410;-55
2022/04/10 15:19:09;;;;;;;;;4.25;4.25;;;;;;;;5040168;28;51546;-54
2022/04/10 15:22:11;;;;;;;;;2.75;2.50;;;;;;;;5039947;28;51175;-55
2022/04/10 15:25:17;;;;;;;;;4.00;3.00;;;;;;;;5038261;28;51155;-55
2022/04/10 15:28:04;;;;;;;;;4.00;2.50;;;;;;;;5035644;28;51320;-55
2022/04/10 15:30:52;;;;;;;;;5.50;2.00;;;;;;;;5040348;28;51305;-54
2022/04/10 15:33:38;;;;;;;;;4.25;2.25;;;;;;;;5036384;28;51513;-55
2022/04/10 15:36:23;;;;;;;;;7.75;3.00;;;;;;;;5036203;28;51117;-54
2022/04/10 15:39:12;;;;;;;;;6.50;4.75;;;;;;;;5042098;28;51046;-54
2022/04/10 15:42:03;;;;;;;;;5.25;3.00;;;;;;;;5057052;28;51105;-54
2022/04/10 15:44:48;;;;;;;;;4.25;4.00;;;;;;;;5056899;28;51447;-53
2022/04/10 15:47:38;;;;;;;;;2.25;2.25;;;;;;;;5058883;28;51109;-54
2022/04/10 15:50:26;;;;;;;;;7.25;4.50;;;;;;;;5056982;28;51377;-54
2022/04/10 15:53:11;;;;;;;;;4.75;3.50;;;;;;;;5059356;28;51081;-54
2022/04/10 15:55:55;;;;;;;;;8.00;3.00;;;;;;;;5054185;28;51133;-55
2022/04/10 15:58:41;;;;;;;;;4.25;3.25;;;;;;;;5054848;28;51182;-55
2022/04/10 16:01:27;;;;;;;;;6.25;5.00;;;;;;;;5055422;28;51118;-55
2022/04/10 16:04:22;;;;;;;;;5.75;3.25;;;;;;;;5053699;28;51083;-56
2022/04/10 16:07:08;;;;;;;;;4.75;4.00;;;;;;;;5056279;28;51168;-51
2022/04/10 16:09:57;;;;;;;;;5.50;3.25;;;;;;;;5055829;28;51587;-56
2022/04/10 16:12:42;;;;;;;;;4.25;1.00;;;;;;;;5054182;28;51082;-54
2022/04/10 16:15:28;;;;;;;;;5.00;3.75;;;;;;;;5038905;28;51298;-55
2022/04/10 16:18:25;;;;;;;;;7.25;4.50;;;;;;;;5056844;28;51178;-52
2022/04/10 16:21:22;;;;;;;;;4.00;3.75;;;;;;;;5047831;28;51087;-54
2022/04/10 16:24:11;;;;;;;;;4.50;3.50;;;;;;;;5044668;28;51478;-56
2022/04/10 16:30:13;;;;;;;;;7.75;4.50;;;;;;;;5053149;28;51190;-54
2022/04/10 16:33:08;;;;;;;;;6.50;4.25;;;;;;;;5055369;28;51133;-56
2022/04/10 16:35:55;;;;;;;;;5.25;5.00;;;;;;;;5054176;28;51591;-55
2022/04/10 16:38:47;;;;;;;;;6.75;3.75;;;;;;;;5054177;28;51054;-56
2022/04/10 16:41:43;;;;;;;;;6.75;4.75;;;;;;;;5051633;28;51494;-54